TimeHST,TemperatureF,Dew PointF,Humidity,Sea Level PressureIn,VisibilityMPH,Wind Direction,Wind SpeedMPH,Gust SpeedMPH,PrecipitationIn,Events,Conditions,WindDirDegrees,DateUTC
12:57 AM,77.5,69.1,75,29.99,10.0,Calm,Calm,-,N/A,,Mostly Cloudy,0,2013-08-20 10:57:00
1:15 AM,75.2,69.8,83,30.00,6.2,Calm,Calm,-,N/A,,Mostly Cloudy,0,2013-08-20 11:15:00
1:57 AM,75.2,69.1,81,29.98,10.0,Calm,Calm,-,N/A,,Mostly Cloudy,0,2013-08-20 11:57:00
2:57 AM,75.2,68.0,78,29.96,10.0,Calm,Calm,-,N/A,,Scattered Clouds,0,2013-08-20 12:57:00
3:57 AM,75.2,69.1,81,29.95,10.0,Calm,Calm,-,N/A,,Scattered Clouds,0,2013-08-20 13:57:00
4:57 AM,80.1,69.1,69,29.96,10.0,Calm,Calm,-,N/A,,Mostly Cloudy,0,2013-08-20 14:57:00
5:57 AM,77.2,69.1,76,29.96,10.0,Calm,Calm,-,N/A,,Mostly Cloudy,0,2013-08-20 15:57:00
6:57 AM,80.1,70.0,71,29.97,10.0,Calm,Calm,-,N/A,,Scattered Clouds,0,2013-08-20 16:57:00
7:57 AM,80.6,70.0,70,29.98,10.0,ESE,6.9,-,N/A,,Scattered Clouds,110,2013-08-20 17:57:00
8:57 AM,80.6,71.1,73,29.99,10.0,ESE,9.2,-,0.00,,Scattered Clouds,110,2013-08-20 18:57:00
9:57 AM,80.6,71.1,73,29.99,10.0,ESE,9.2,-,N/A,,Scattered Clouds,110,2013-08-20 19:57:00
10:57 AM,82.4,70.0,66,29.99,10.0,NE,8.1,-,N/A,,Scattered Clouds,50,2013-08-20 20:57:00
11:57 AM,83.7,71.1,66,29.98,10.0,NE,5.8,-,N/A,,Overcast,50,2013-08-20 21:57:00
12:57 PM,83.5,70.0,64,29.97,10.0,ENE,9.2,-,N/A,,Overcast,60,2013-08-20 22:57:00
1:57 PM,84.6,69.1,60,29.95,10.0,ESE,8.1,-,N/A,,Overcast,110,2013-08-20 23:57:00
2:57 PM,86.0,69.1,57,29.94,10.0,ESE,8.1,-,N/A,,Scattered Clouds,110,2013-08-21 00:57:00
3:57 PM,82.4,69.1,64,29.93,10.0,East,9.2,-,N/A,,Partly Cloudy,100,2013-08-21 01:57:00
4:57 PM,82.4,70.0,66,29.92,10.0,ENE,3.5,-,N/A,,Partly Cloudy,60,2013-08-21 02:57:00
5:18 PM,87.8,69.8,55,29.93,6.2,ENE,6.9,-,N/A,,Mostly Cloudy,70,2013-08-21 03:18:00
5:26 PM,80.6,69.8,70,29.93,6.2,ENE,5.8,-,N/A,,Scattered Clouds,70,2013-08-21 03:26:00
5:57 PM,79.9,70.0,72,29.93,10.0,ENE,6.9,-,N/A,,Mostly Cloudy,60,2013-08-21 03:57:00
6:08 PM,82.4,71.6,70,29.94,6.2,East,4.6,-,N/A,,Mostly Cloudy,80,2013-08-21 04:08:00
6:45 PM,82.4,71.6,70,29.95,6.2,ENE,5.8,-,N/A,,Mostly Cloudy,70,2013-08-21 04:45:00
6:57 PM,84.0,71.1,65,29.94,10.0,Variable,3.5,-,N/A,,Scattered Clouds,0,2013-08-21 04:57:00
7:00 PM,-9999,-9999,N/A,-9999,-9999.0,North,-9999.0,-,N/A,,Unknown,0,2013-08-21 05:00:00
7:08 PM,80.6,71.6,74,29.95,6.2,ENE,3.5,-,N/A,,Mostly Cloudy,60,2013-08-21 05:08:00
7:16 PM,80.6,71.6,74,29.95,6.2,Calm,Calm,-,N/A,,Scattered Clouds,0,2013-08-21 05:16:00
7:24 PM,80.6,71.6,74,29.95,6.2,Variable,5.8,-,N/A,,Mostly Cloudy,0,2013-08-21 05:24:00
7:33 PM,80.6,71.6,74,29.95,6.2,East,6.9,-,N/A,,Mostly Cloudy,80,2013-08-21 05:33:00
7:57 PM,80.4,71.1,73,29.95,10.0,East,8.1,-,N/A,,Mostly Cloudy,80,2013-08-21 05:57:00
8:05 PM,86.0,71.6,62,29.96,6.2,East,5.8,-,N/A,,Mostly Cloudy,90,2013-08-21 06:05:00
8:19 PM,87.8,71.6,58,29.96,6.2,East,6.9,-,N/A,,Mostly Cloudy,90,2013-08-21 06:19:00
8:57 PM,77.0,71.1,82,29.96,10.0,East,8.1,-,N/A,,Clear,90,2013-08-21 06:57:00
9:57 PM,87.1,70.0,57,29.98,10.0,ESE,6.9,-,N/A,,Overcast,110,2013-08-21 07:57:00
10:57 PM,73.6,70.0,88,29.98,10.0,East,5.8,-,N/A,,Mostly Cloudy,100,2013-08-21 08:57:00
11:57 PM,87.1,70.0,57,29.97,10.0,East,8.1,-,N/A,,Overcast,90,2013-08-21 09:57:00